Main page
METAR-TAF:

METAR-TAF

Airports :

Maastricht Aachen Airport

Maastricht Aachen, Netherlands

latitude: 50-55N, longitude: 005-47E, elevation: 114 m

Current weather observation

The report was made 25 minutes ago, at 18:55 UTC
Wind 9 kt from the Northeast
Temperature 3°C
Humidity 93%
Pressure 1021 hPa
Visibility: 3400 m
mist

METAR: EHBK 281855Z AUTO 05009KT 3400 BR NCD 03/02 Q1021 TEMPO 2500

Time: 20:20 (19:20 UTC)

Forecast

The report was made 31 minutes ago, at 18:49 UTC
Forecast valid from 28 at 18 UTC to 29 at 24 UTC
Wind 8 kt from the East/Northeast
Visibility: 6000 m
Probability 40%
from 28 at 18 UTC to 29 at 08 UTC
Visibility: 2000 m
mist
Probability 40%
from 28 at 20 UTC to 29 at 08 UTC
Visibility: 1400 m
Broken clouds at a height of 400 ft
Becoming
from 29 at 09 UTC to 29 at 12 UTC
Visibility 10 km or more
no clouds below 1500 m and no cumulonimbus

TAF: EHBK 281849Z 2818/2924 06008KT 6000 NSC PROB40 2818/2908 2000 BR PROB40 2820/2908 1400 BKN004 BECMG 2909/2912 CAVOK

Weather observations and forecasts of more than 4000 airports (METAR and TAF reports).

The available stations are represented by yellow and red dots on the map.

Hover mouse over dot to see the name of the station.

Then click to see weather observations and forecasts.

To change the map : click on the green buttons with a black cross to zoom in, on the green button with a dash to zoom out, or on the green arrows for adjacent maps.


METAR-TAF: